createdAt,value
2022-11-13T00:01:18.476Z,41.97
2022-11-13T00:03:45.802Z,32.75
2022-11-13T00:06:13.960Z,61.40
2022-11-13T00:08:45.002Z,30.27
2022-11-13T00:11:15.006Z,43.35
2022-11-13T00:13:43.173Z,39.28
2022-11-13T00:16:16.279Z,24.88
2022-11-13T00:18:43.473Z,31.85
2022-11-13T00:21:17.668Z,20.95
2022-11-13T00:23:44.937Z,43.83
2022-11-13T00:26:13.159Z,30.63
2022-11-13T00:28:40.020Z,22.20
2022-11-13T00:31:08.573Z,37.53
2022-11-13T00:36:26.432Z,45.70
2022-11-13T00:38:54.265Z,39.53
2022-11-13T00:41:21.543Z,30.40
2022-11-13T00:43:48.594Z,29.02
2022-11-13T00:46:15.388Z,21.10
2022-11-13T00:48:42.206Z,43.55
2022-11-13T00:51:09.324Z,23.63
2022-11-13T00:53:36.239Z,33.65
2022-11-13T00:56:03.292Z,27.15
2022-11-13T00:58:30.552Z,32.83
2022-11-13T01:01:07.680Z,36.30
2022-11-13T01:03:34.870Z,36.75
2022-11-13T01:06:01.712Z,42.38
2022-11-13T01:08:28.798Z,39.45
2022-11-13T01:10:55.893Z,30.85
2022-11-13T01:13:22.738Z,32.72
2022-11-13T01:15:49.523Z,18.23
2022-11-13T01:18:16.393Z,38.50
2022-11-13T01:20:43.187Z,30.65
2022-11-13T01:23:10.066Z,74.63
2022-11-13T01:25:36.940Z,54.85
2022-11-13T01:28:03.970Z,50.03
2022-11-13T01:30:30.769Z,44.63
2022-11-13T01:32:57.578Z,34.35
2022-11-13T01:35:24.451Z,47.03
2022-11-13T01:37:51.239Z,52.10
2022-11-13T01:40:18.169Z,25.02
2022-11-13T01:42:44.974Z,38.30
2022-11-13T01:45:49.379Z,57.60
2022-11-13T01:48:16.236Z,53.33
2022-11-13T01:50:43.121Z,42.30
2022-11-13T01:53:10.069Z,27.50
2022-11-13T01:55:37.011Z,31.63
2022-11-13T01:58:06.117Z,41.72
2022-11-13T02:00:33.056Z,42.83
2022-11-13T02:02:59.908Z,52.05
2022-11-13T02:05:26.751Z,26.98
2022-11-13T02:07:53.752Z,42.17
2022-11-13T02:10:20.691Z,43.97
2022-11-13T02:12:51.206Z,44.42
2022-11-13T02:15:23.521Z,53.25
2022-11-13T02:17:59.154Z,69.35
2022-11-13T02:20:35.535Z,46.33
2022-11-13T02:23:17.824Z,43.53
2022-11-13T02:25:47.954Z,53.72
2022-11-13T02:28:14.986Z,58.72
2022-11-13T02:30:42.043Z,63.60
2022-11-13T02:33:38.312Z,41.92
2022-11-13T02:36:05.962Z,62.72
2022-11-13T02:38:34.798Z,76.38
2022-11-13T02:41:01.607Z,44.65
2022-11-13T02:43:28.490Z,64.75
2022-11-13T02:45:55.350Z,57.15
2022-11-13T02:48:22.197Z,58.90
2022-11-13T02:50:49.195Z,56.67
2022-11-13T02:53:16.125Z,64.43
2022-11-13T02:55:42.909Z,58.13
2022-11-13T02:58:09.696Z,54.78
2022-11-13T03:00:36.498Z,46.13
2022-11-13T03:03:03.515Z,58.55
2022-11-13T03:05:30.321Z,45.63
2022-11-13T03:07:57.192Z,50.10
2022-11-13T03:10:23.995Z,40.60
2022-11-13T03:12:50.805Z,49.50
2022-11-13T03:15:17.687Z,39.63
2022-11-13T03:17:44.513Z,41.30
2022-11-13T03:20:11.325Z,44.10
2022-11-13T03:22:38.128Z,39.85
2022-11-13T03:25:10.253Z,41.17
2022-11-13T03:27:37.993Z,35.95
2022-11-13T03:30:05.771Z,36.35
2022-11-13T03:32:32.598Z,24.85
2022-11-13T03:34:59.413Z,34.75
2022-11-13T03:37:26.217Z,48.92
2022-11-13T03:39:52.984Z,45.72
2022-11-13T03:42:20.033Z,27.58
2022-11-13T03:44:46.904Z,46.97
2022-11-13T03:47:15.220Z,51.47
2022-11-13T03:49:42.057Z,48.15
2022-11-13T03:52:08.850Z,44.83
2022-11-13T03:54:35.713Z,41.13
2022-11-13T03:57:02.497Z,53.60
2022-11-13T03:59:29.332Z,57.90
2022-11-13T04:01:56.550Z,63.63
2022-11-13T04:04:23.401Z,64.00
2022-11-13T04:06:50.231Z,64.97
2022-11-13T04:09:17.211Z,50.03
2022-11-13T04:11:44.007Z,48.28
2022-11-13T04:14:10.827Z,38.75
2022-11-13T04:16:37.589Z,36.25
2022-11-13T04:19:04.513Z,29.80
2022-11-13T04:21:31.323Z,51.67
2022-11-13T04:23:58.136Z,50.33
2022-11-13T04:26:24.936Z,65.15
2022-11-13T04:28:51.755Z,60.35
2022-11-13T04:31:18.550Z,45.78
2022-11-13T04:33:45.351Z,58.45
2022-11-13T04:36:12.214Z,35.92
2022-11-13T04:38:39.052Z,31.33
2022-11-13T04:41:24.384Z,47.63
2022-11-13T04:43:51.222Z,34.05
2022-11-13T04:46:17.993Z,31.65
2022-11-13T04:48:44.804Z,40.60
2022-11-13T04:51:12.344Z,36.15
2022-11-13T04:53:39.179Z,19.58
2022-11-13T04:56:06.150Z,31.98
2022-11-13T04:58:33.017Z,24.92
2022-11-13T05:00:59.818Z,32.13
2022-11-13T05:03:26.729Z,21.23
2022-11-13T05:05:53.543Z,22.55
2022-11-13T05:08:20.341Z,18.85
2022-11-13T05:10:47.111Z,18.00
2022-11-13T05:13:13.921Z,19.08
2022-11-13T05:15:40.684Z,25.25
2022-11-13T05:18:07.500Z,38.60
2022-11-13T05:20:34.321Z,29.65
2022-11-13T05:23:01.158Z,27.15
2022-11-13T05:25:28.011Z,19.52
2022-11-13T05:27:57.110Z,22.67
2022-11-13T05:30:24.345Z,20.27
2022-11-13T05:32:52.529Z,18.27
2022-11-13T05:35:19.370Z,16.20
2022-11-13T05:37:46.140Z,33.42
2022-11-13T05:40:13.085Z,19.23
2022-11-13T05:42:39.851Z,26.42
2022-11-13T05:45:07.418Z,36.53
2022-11-13T05:47:34.252Z,25.52
2022-11-13T05:50:01.082Z,21.75
2022-11-13T05:52:28.038Z,19.75
2022-11-13T05:54:54.919Z,21.45
2022-11-13T05:57:21.699Z,16.80
2022-11-13T05:59:48.498Z,18.27
2022-11-13T06:02:15.306Z,14.32
2022-11-13T06:04:42.169Z,23.15
2022-11-13T06:07:08.982Z,17.80
2022-11-13T06:09:35.882Z,27.35
2022-11-13T06:12:02.715Z,26.23
2022-11-13T06:14:29.532Z,15.93
2022-11-13T06:16:56.317Z,21.20
2022-11-13T06:19:23.733Z,14.00
2022-11-13T06:21:50.497Z,13.23
2022-11-13T06:24:17.305Z,13.07
2022-11-13T06:26:44.109Z,11.38
2022-11-13T06:29:12.950Z,11.60
2022-11-13T06:31:40.137Z,15.15
2022-11-13T06:34:07.183Z,19.52
2022-11-13T06:36:36.324Z,11.82
2022-11-13T06:39:07.687Z,16.15
2022-11-13T06:41:34.919Z,10.02
2022-11-13T06:44:03.381Z,13.27
2022-11-13T06:46:31.007Z,13.13
2022-11-13T06:48:58.984Z,20.70
2022-11-13T06:51:29.111Z,16.60
2022-11-13T06:53:57.061Z,19.08
2022-11-13T06:56:24.542Z,22.23
2022-11-13T06:58:51.382Z,25.25
2022-11-13T07:01:20.756Z,32.38
2022-11-13T07:03:47.979Z,20.70
2022-11-13T07:06:25.093Z,21.48
2022-11-13T07:08:52.531Z,22.58
2022-11-13T07:11:22.073Z,22.25
2022-11-13T07:13:49.508Z,20.30
2022-11-13T07:16:18.146Z,26.10
2022-11-13T07:18:53.288Z,23.52
2022-11-13T07:21:21.260Z,21.38
2022-11-13T07:23:49.621Z,21.55
2022-11-13T07:26:16.956Z,23.83
2022-11-13T07:28:43.804Z,25.20
2022-11-13T07:31:12.409Z,27.77
2022-11-13T07:33:39.273Z,27.67
2022-11-13T07:36:06.707Z,27.40
2022-11-13T07:38:33.619Z,23.00
2022-11-13T07:41:01.107Z,29.30
2022-11-13T07:43:28.393Z,26.30
2022-11-13T07:45:57.895Z,25.60
2022-11-13T07:48:27.155Z,24.73
2022-11-13T07:50:54.661Z,24.38
2022-11-13T07:53:22.492Z,25.00
2022-11-13T07:55:49.281Z,25.50
2022-11-13T07:58:16.125Z,24.60
2022-11-13T08:00:42.985Z,25.02
2022-11-13T08:03:13.632Z,23.05
2022-11-13T08:05:41.000Z,25.55
2022-11-13T08:08:08.718Z,21.25
2022-11-13T08:10:36.630Z,23.05
2022-11-13T08:13:10.935Z,21.58
2022-11-13T08:15:38.332Z,21.55
2022-11-13T08:18:05.902Z,19.85
2022-11-13T08:20:33.727Z,20.80
2022-11-13T08:23:03.122Z,18.58
2022-11-13T08:25:31.108Z,21.90
2022-11-13T08:27:58.373Z,24.92
2022-11-13T08:30:27.273Z,23.42
2022-11-13T08:32:54.519Z,21.85
2022-11-13T08:35:25.359Z,22.30
2022-11-13T08:37:56.106Z,24.90
2022-11-13T08:40:22.896Z,21.25
2022-11-13T08:42:50.065Z,21.02
2022-11-13T08:45:17.097Z,20.40
2022-11-13T08:47:43.863Z,20.05
2022-11-13T08:50:10.759Z,22.30
2022-11-13T08:52:37.523Z,18.45
2022-11-13T08:55:04.798Z,18.50
2022-11-13T08:57:31.600Z,18.05
2022-11-13T08:59:58.449Z,18.10
2022-11-13T09:02:25.289Z,23.70
2022-11-13T09:04:52.173Z,18.25
2022-11-13T09:07:22.141Z,19.02
2022-11-13T09:09:52.957Z,23.45
2022-11-13T09:12:19.757Z,22.70
2022-11-13T09:14:46.568Z,25.25
2022-11-13T09:17:13.420Z,22.52
2022-11-13T09:19:40.403Z,28.38
2022-11-13T09:22:07.199Z,20.98
2022-11-13T09:24:34.020Z,16.40
2022-11-13T09:27:01.175Z,18.85
2022-11-13T09:29:28.697Z,19.02
2022-11-13T09:31:56.171Z,16.85
2022-11-13T09:34:25.768Z,16.02
2022-11-13T09:36:52.647Z,16.95
2022-11-13T09:39:19.486Z,19.67
2022-11-13T09:42:23.835Z,16.58
2022-11-13T09:45:07.297Z,16.38
2022-11-13T09:47:39.917Z,14.60
2022-11-13T09:50:19.259Z,13.82
2022-11-13T09:52:46.675Z,15.32
2022-11-13T09:55:19.460Z,15.63
2022-11-13T09:57:49.392Z,11.88
2022-11-13T10:00:21.466Z,14.88
2022-11-13T10:05:46.727Z,13.40
2022-11-13T10:08:16.856Z,12.30
2022-11-13T10:10:55.585Z,14.07
2022-11-13T10:13:31.156Z,13.20
2022-11-13T10:16:21.323Z,13.25
2022-11-13T10:18:50.753Z,14.63
2022-11-13T10:21:25.443Z,12.07
2022-11-13T10:23:56.516Z,12.63
2022-11-13T10:26:27.136Z,12.60
2022-11-13T10:29:06.296Z,13.35
2022-11-13T10:31:50.152Z,14.68
2022-11-13T10:34:18.621Z,16.58
2022-11-13T10:37:11.035Z,14.23
2022-11-13T10:42:37.292Z,14.90
2022-11-13T10:45:09.508Z,16.02
2022-11-13T10:48:03.812Z,16.15
2022-11-13T10:50:33.094Z,14.18
2022-11-13T10:52:59.970Z,14.95
2022-11-13T10:55:39.529Z,14.98
2022-11-13T10:58:17.727Z,15.40
2022-11-13T11:00:49.180Z,16.67
2022-11-13T11:03:19.199Z,15.32
2022-11-13T11:06:03.737Z,17.30
2022-11-13T11:08:35.602Z,15.32
2022-11-13T11:11:32.946Z,16.70
2022-11-13T11:14:17.905Z,13.30
2022-11-13T11:16:46.480Z,14.88
2022-11-13T11:19:15.609Z,15.57
2022-11-13T11:21:44.488Z,16.30
2022-11-13T11:24:23.671Z,15.63
2022-11-13T11:26:57.341Z,14.50
2022-11-13T11:30:00.579Z,15.27
2022-11-13T11:32:49.400Z,14.15
2022-11-13T11:35:22.297Z,13.77
2022-11-13T11:38:01.209Z,16.45
2022-11-13T11:40:38.258Z,13.70
2022-11-13T11:43:40.358Z,14.82
2022-11-13T11:46:12.359Z,13.55
2022-11-13T11:48:40.501Z,12.27
2022-11-13T11:51:25.490Z,12.25
2022-11-13T11:54:23.452Z,12.23
2022-11-13T11:57:03.532Z,11.13
2022-11-13T11:59:33.396Z,13.05
2022-11-13T12:02:06.360Z,12.55
2022-11-13T12:04:38.998Z,11.95
2022-11-13T12:07:42.261Z,11.85
2022-11-13T12:10:27.310Z,11.35
2022-11-13T12:13:13.056Z,11.90
2022-11-13T12:16:01.016Z,11.68
2022-11-13T12:18:39.789Z,14.25
2022-11-13T12:21:28.606Z,13.13
2022-11-13T12:24:20.291Z,13.50
2022-11-13T12:27:10.514Z,12.00
2022-11-13T12:30:03.836Z,11.55
2022-11-13T12:33:08.568Z,12.18
2022-11-13T12:35:37.025Z,10.80
2022-11-13T12:39:01.287Z,11.68
2022-11-13T12:41:36.043Z,11.23
2022-11-13T12:44:28.826Z,12.88
2022-11-13T12:46:57.687Z,12.13
2022-11-13T12:49:24.978Z,13.57
2022-11-13T12:52:16.647Z,12.05
2022-11-13T12:54:43.828Z,13.68
2022-11-13T12:57:13.665Z,11.85
2022-11-13T12:59:53.476Z,11.32
2022-11-13T13:02:57.815Z,14.05
2022-11-13T13:05:53.356Z,12.90
2022-11-13T13:08:32.108Z,13.38
2022-11-13T13:11:17.764Z,11.48
2022-11-13T13:13:47.383Z,11.00
2022-11-13T13:16:27.395Z,11.85
2022-11-13T13:19:05.527Z,11.48
2022-11-13T13:21:42.505Z,11.88
2022-11-13T13:24:27.484Z,14.02
2022-11-13T13:26:54.349Z,13.65
2022-11-13T13:29:26.487Z,14.23
2022-11-13T13:34:55.420Z,11.75
2022-11-13T13:37:57.312Z,12.52
2022-11-13T13:40:56.487Z,13.52
2022-11-13T13:43:46.554Z,13.70
2022-11-13T13:46:22.280Z,10.60
2022-11-13T13:48:50.885Z,12.57
2022-11-13T13:51:20.428Z,12.15
2022-11-13T13:53:49.209Z,12.77
2022-11-13T13:56:16.874Z,10.80
2022-11-13T13:58:43.818Z,13.57
2022-11-13T14:01:25.605Z,12.38
2022-11-13T14:04:17.772Z,12.45
2022-11-13T14:06:59.555Z,11.45
2022-11-13T14:09:28.814Z,13.52
2022-11-13T14:12:09.265Z,10.65
2022-11-13T14:14:39.215Z,10.15
2022-11-13T14:17:07.051Z,12.13
2022-11-13T14:19:33.941Z,12.90
2022-11-13T14:22:03.700Z,16.67
2022-11-13T14:24:53.991Z,14.20
2022-11-13T14:27:26.330Z,17.55
2022-11-13T14:29:57.067Z,21.30
2022-11-13T14:32:33.927Z,22.38
2022-11-13T14:35:03.220Z,18.02
2022-11-13T14:37:37.407Z,15.68
2022-11-13T14:40:21.550Z,17.42
2022-11-13T14:42:58.881Z,18.33
2022-11-13T14:45:28.753Z,17.02
2022-11-13T14:47:59.531Z,17.15
2022-11-13T14:50:37.202Z,18.13
2022-11-13T14:53:10.244Z,20.50
2022-11-13T14:55:50.323Z,18.20
2022-11-13T14:58:31.078Z,19.20
2022-11-13T15:00:59.625Z,19.95
2022-11-13T15:03:27.911Z,18.13
2022-11-13T15:05:55.136Z,18.75
2022-11-13T15:08:22.147Z,20.65
2022-11-13T15:10:49.131Z,18.63
2022-11-13T15:13:17.907Z,18.65
2022-11-13T15:15:45.064Z,20.10
2022-11-13T15:18:19.842Z,18.88
2022-11-13T15:20:46.681Z,20.55
2022-11-13T15:23:15.562Z,20.88
2022-11-13T15:25:43.481Z,21.92
2022-11-13T15:28:10.343Z,20.33
2022-11-13T15:30:37.220Z,22.10
2022-11-13T15:33:12.337Z,18.95
2022-11-13T15:35:40.305Z,21.75
2022-11-13T15:38:07.118Z,24.30
2022-11-13T15:40:33.916Z,22.95
2022-11-13T15:43:01.874Z,19.23
2022-11-13T15:45:28.683Z,20.05
2022-11-13T15:47:55.540Z,21.55
2022-11-13T15:50:22.878Z,23.15
2022-11-13T15:52:52.360Z,21.17
2022-11-13T15:55:31.294Z,24.13
2022-11-13T15:57:59.219Z,25.35
2022-11-13T16:00:28.411Z,23.27
2022-11-13T16:02:57.438Z,24.95
2022-11-13T16:05:25.970Z,21.27
2022-11-13T16:07:54.225Z,24.77
2022-11-13T16:10:27.385Z,22.58
2022-11-13T16:12:54.379Z,24.05
2022-11-13T16:15:21.654Z,24.88
2022-11-13T16:17:54.600Z,25.77
2022-11-13T16:20:21.478Z,21.13
2022-11-13T16:22:48.350Z,26.88
2022-11-13T16:25:18.544Z,25.60
2022-11-13T16:27:45.872Z,24.65
2022-11-13T16:30:20.049Z,27.05
2022-11-13T16:32:47.555Z,26.70
2022-11-13T16:35:16.633Z,25.30
2022-11-13T16:37:43.522Z,25.88
2022-11-13T16:40:30.811Z,23.73
2022-11-13T16:42:57.842Z,27.20
2022-11-13T16:45:24.643Z,27.23
2022-11-13T16:47:51.526Z,22.38
2022-11-13T16:50:23.728Z,20.63
2022-11-13T16:52:51.173Z,25.33
2022-11-13T16:55:17.967Z,23.23
2022-11-13T16:57:44.817Z,23.23
2022-11-13T17:00:15.267Z,24.98
2022-11-13T17:02:43.031Z,21.58
2022-11-13T17:05:17.562Z,21.38
2022-11-13T17:07:44.446Z,18.70
2022-11-13T17:13:00.907Z,20.85
2022-11-13T17:15:27.882Z,22.02
2022-11-13T17:17:58.357Z,24.38
2022-11-13T17:20:25.472Z,22.90
2022-11-13T17:22:52.439Z,21.13
2022-11-13T17:25:20.609Z,19.73
2022-11-13T17:27:47.569Z,20.48
2022-11-13T17:30:14.736Z,20.30
2022-11-13T17:32:41.646Z,21.23
2022-11-13T17:35:11.518Z,24.60
2022-11-13T17:37:38.924Z,22.27
2022-11-13T17:40:06.394Z,25.20
2022-11-13T17:42:33.347Z,25.65
2022-11-13T17:45:00.185Z,22.77
2022-11-13T17:47:27.012Z,23.52
2022-11-13T17:49:53.787Z,23.95
2022-11-13T17:52:20.644Z,23.52
2022-11-13T17:54:47.433Z,23.50
2022-11-13T17:57:14.528Z,46.05
2022-11-13T17:59:41.424Z,33.70
2022-11-13T18:02:11.405Z,25.38
2022-11-13T18:04:38.147Z,23.08
2022-11-13T18:07:04.995Z,24.55
2022-11-13T18:09:31.881Z,23.05
2022-11-13T18:11:58.667Z,27.15
2022-11-13T18:14:25.423Z,25.42
2022-11-13T18:16:52.248Z,22.05
2022-11-13T18:19:19.139Z,21.92
2022-11-13T18:21:45.933Z,21.23
2022-11-13T18:24:15.709Z,26.38
2022-11-13T18:26:42.600Z,37.40
2022-11-13T18:29:09.692Z,25.65
2022-11-13T18:31:37.329Z,20.95
2022-11-13T18:34:06.219Z,26.08
2022-11-13T18:36:34.729Z,23.98
2022-11-13T18:39:03.302Z,21.80
2022-11-13T18:41:30.661Z,22.25
2022-11-13T18:43:57.531Z,20.13
2022-11-13T18:46:24.588Z,24.13
2022-11-13T18:48:51.803Z,20.92
2022-11-13T18:51:21.521Z,20.60
2022-11-13T18:53:49.705Z,21.15
2022-11-13T18:56:22.145Z,28.77
2022-11-13T18:58:52.317Z,27.90
2022-11-13T19:01:23.207Z,27.55
2022-11-13T19:04:16.201Z,33.00
2022-11-13T19:06:38.794Z,31.02
2022-11-13T19:09:12.423Z,27.80
2022-11-13T19:11:39.938Z,25.00
2022-11-13T19:14:07.673Z,21.88
2022-11-13T19:16:38.045Z,23.40
2022-11-13T19:19:20.228Z,23.63
2022-11-13T19:21:47.537Z,21.33
2022-11-13T19:24:15.048Z,23.90
2022-11-13T19:26:42.739Z,23.73
2022-11-13T19:29:09.864Z,25.27
2022-11-13T19:31:36.715Z,27.50
2022-11-13T19:34:07.361Z,25.08
2022-11-13T19:36:35.902Z,30.13
2022-11-13T19:39:03.880Z,30.80
2022-11-13T19:41:30.708Z,29.95
2022-11-13T19:43:59.775Z,32.72
2022-11-13T19:46:26.973Z,44.13
2022-11-13T19:48:53.840Z,47.58
2022-11-13T19:51:23.623Z,45.45
2022-11-13T19:53:58.791Z,55.80
2022-11-13T19:56:28.269Z,43.40
2022-11-13T19:58:55.595Z,65.32
2022-11-13T20:01:27.699Z,33.47
2022-11-13T20:06:31.661Z,42.70
2022-11-13T20:08:59.676Z,48.22
2022-11-13T20:11:26.517Z,47.78
2022-11-13T20:13:53.703Z,42.28
2022-11-13T20:16:22.047Z,36.22
2022-11-13T20:18:49.559Z,44.60
2022-11-13T20:21:24.295Z,42.83
2022-11-13T20:23:52.527Z,41.55
2022-11-13T20:26:19.421Z,47.42
2022-11-13T20:28:46.259Z,39.47
2022-11-13T20:31:22.378Z,84.22
2022-11-13T20:33:54.914Z,77.85
2022-11-13T20:36:22.550Z,51.90
2022-11-13T20:38:53.648Z,69.13
2022-11-13T20:41:21.141Z,65.30
2022-11-13T20:43:48.568Z,64.20
2022-11-13T20:46:17.568Z,50.90
2022-11-13T20:48:48.077Z,53.58
2022-11-13T20:51:14.871Z,41.17
2022-11-13T20:53:42.628Z,50.10
2022-11-13T20:56:10.138Z,53.40
2022-11-13T20:58:37.064Z,45.60
2022-11-13T21:01:11.390Z,46.05
2022-11-13T21:03:41.344Z,39.00
2022-11-13T21:06:10.558Z,52.13
2022-11-13T21:08:38.158Z,35.63
2022-11-13T21:11:06.386Z,40.00
2022-11-13T21:13:34.102Z,42.70
2022-11-13T21:16:06.021Z,45.00
2022-11-13T21:18:32.909Z,44.38
2022-11-13T21:21:12.887Z,39.65
2022-11-13T21:23:40.196Z,34.88
2022-11-13T21:26:08.424Z,35.67
2022-11-13T21:28:36.356Z,45.47
2022-11-13T21:31:13.121Z,36.85
2022-11-13T21:33:41.778Z,30.25
2022-11-13T21:36:20.035Z,34.85
2022-11-13T21:38:49.951Z,39.63
2022-11-13T21:41:23.255Z,49.63
2022-11-13T21:44:04.760Z,51.63
2022-11-13T21:46:39.750Z,38.23
2022-11-13T21:49:09.854Z,43.08
2022-11-13T21:51:38.221Z,58.45
2022-11-13T21:54:05.851Z,37.90
2022-11-13T21:56:36.507Z,45.85
2022-11-13T21:59:03.927Z,50.55
2022-11-13T22:01:37.846Z,44.55
2022-11-13T22:04:05.944Z,34.70
2022-11-13T22:06:36.292Z,30.35
2022-11-13T22:09:24.064Z,37.97
2022-11-13T22:11:51.532Z,33.20
2022-11-13T22:14:18.653Z,48.92
2022-11-13T22:16:46.921Z,44.40
2022-11-13T22:19:22.640Z,44.80
2022-11-13T22:21:54.102Z,39.17
2022-11-13T22:24:20.964Z,33.08
2022-11-13T22:26:50.737Z,40.55
2022-11-13T22:29:17.661Z,34.90
2022-11-13T22:31:45.081Z,55.22
2022-11-13T22:34:12.184Z,61.35
2022-11-13T22:36:39.145Z,44.72
2022-11-13T22:39:06.651Z,31.90
2022-11-13T22:41:36.018Z,40.20
2022-11-13T22:44:12.986Z,49.00
2022-11-13T22:46:39.944Z,41.92
2022-11-13T22:49:07.362Z,46.80
2022-11-13T22:51:38.344Z,43.90
2022-11-13T22:54:07.497Z,49.03
2022-11-13T22:56:35.351Z,32.25
2022-11-13T22:59:04.650Z,33.85
2022-11-13T23:01:34.038Z,58.65
2022-11-13T23:04:03.757Z,58.67
2022-11-13T23:06:33.461Z,34.15
2022-11-13T23:09:01.173Z,36.80
2022-11-13T23:11:29.088Z,40.75
2022-11-13T23:13:58.760Z,34.03
2022-11-13T23:16:27.121Z,50.60
2022-11-13T23:18:56.128Z,40.08
2022-11-13T23:21:25.179Z,34.30
2022-11-13T23:23:52.656Z,37.00
2022-11-13T23:26:19.847Z,32.42
2022-11-13T23:28:46.697Z,32.20
2022-11-13T23:31:13.785Z,26.40
2022-11-13T23:33:40.823Z,28.30
2022-11-13T23:36:09.714Z,30.42
2022-11-13T23:38:36.937Z,35.42
2022-11-13T23:41:04.234Z,30.00
2022-11-13T23:43:54.400Z,40.80
2022-11-13T23:46:18.416Z,38.00
2022-11-13T23:48:45.352Z,28.70
2022-11-13T23:51:12.255Z,33.65
2022-11-13T23:53:39.091Z,28.95
2022-11-13T23:56:06.591Z,41.45
2022-11-13T23:58:33.693Z,25.80
